Time;durP1;ratioP1;P1;durP2;ratioP2;P2;SDS_P1;SDS_P2;PMS_P1;PMS_P2;Temp;Humidity;BMP_temperature;BMP_pressure;BME280_temperature;BME280_humidity;BME280_pressure;Samples;Min_cycle;Max_cycle;Signal;HPM_P1;HPM_P2
2022/07/09 00:00:26;;;;;;;3.10;2.38;;;14.70;99.90;;;;;;6125488;23;20173;-74
2022/07/09 00:02:51;;;;;;;2.50;2.30;;;14.70;99.90;;;;;;6126208;23;20150;-75
2022/07/09 00:05:17;;;;;;;3.08;2.63;;;14.60;99.90;;;;;;6126080;23;20181;-75
2022/07/09 00:07:43;;;;;;;2.33;2.22;;;14.50;99.90;;;;;;6125640;23;20570;-77
2022/07/09 00:10:10;;;;;;;2.92;2.00;;;14.50;99.90;;;;;;6125089;23;20169;-75
2022/07/09 00:12:36;;;;;;;3.17;2.28;;;14.50;99.90;;;;;;6126109;23;20153;-75
2022/07/09 00:15:02;;;;;;;3.58;2.40;;;14.50;99.90;;;;;;6100152;23;20162;-75
2022/07/09 00:17:29;;;;;;;3.28;2.22;;;14.30;99.90;;;;;;6125504;23;20157;-75
2022/07/09 00:19:56;;;;;;;3.03;2.00;;;14.30;99.90;;;;;;6125580;23;20174;-74
2022/07/09 00:22:22;;;;;;;2.90;2.40;;;14.20;99.90;;;;;;6125982;23;20181;-74
2022/07/09 00:24:47;;;;;;;2.45;2.25;;;14.20;99.90;;;;;;6125384;23;20698;-74
2022/07/09 00:27:13;;;;;;;2.60;2.15;;;14.20;99.90;;;;;;6125985;23;20154;-74
2022/07/09 00:29:38;;;;;;;2.78;2.05;;;14.20;99.90;;;;;;6125018;23;20493;-75
2022/07/09 00:32:04;;;;;;;3.42;2.00;;;14.10;99.90;;;;;;6125703;23;20160;-75
2022/07/09 00:34:30;;;;;;;3.30;2.33;;;14.00;99.90;;;;;;6099600;23;20169;-75
2022/07/09 00:36:56;;;;;;;2.85;2.25;;;14.00;99.90;;;;;;6125811;23;20157;-75
2022/07/09 00:39:21;;;;;;;4.53;2.00;;;13.90;99.90;;;;;;6124634;23;20157;-75
2022/07/09 00:41:47;;;;;;;5.18;2.35;;;13.80;99.90;;;;;;6125050;23;20466;-75
2022/07/09 00:44:12;;;;;;;2.88;2.10;;;13.80;99.90;;;;;;6124549;23;20490;-75
2022/07/09 00:46:38;;;;;;;2.70;2.15;;;13.80;99.90;;;;;;6125747;23;20146;-75
2022/07/09 00:49:05;;;;;;;2.75;2.10;;;13.80;99.90;;;;;;6125063;23;20150;-74
2022/07/09 00:51:31;;;;;;;1.95;1.85;;;13.80;99.90;;;;;;6125326;23;20225;-75
2022/07/09 00:53:59;;;;;;;2.30;2.15;;;13.80;99.90;;;;;;6125570;23;20539;-76
2022/07/09 00:56:24;;;;;;;3.85;2.03;;;13.70;99.90;;;;;;6126068;23;20154;-75
2022/07/09 00:58:51;;;;;;;3.55;2.50;;;13.50;99.90;;;;;;6125522;23;20181;-76
2022/07/09 01:01:17;;;;;;;3.05;2.45;;;13.50;99.90;;;;;;6125423;23;20228;-76
2022/07/09 01:03:42;;;;;;;2.90;2.40;;;13.40;99.90;;;;;;6124894;23;20631;-76
2022/07/09 01:06:08;;;;;;;2.42;2.22;;;13.40;99.90;;;;;;6125491;23;20599;-76
2022/07/09 01:08:34;;;;;;;3.72;2.38;;;13.40;99.90;;;;;;6125170;23;20520;-76
2022/07/09 01:11:00;;;;;;;4.07;2.42;;;13.40;99.90;;;;;;6125195;23;20166;-76
2022/07/09 01:13:26;;;;;;;2.42;2.22;;;13.40;99.90;;;;;;6125457;23;20200;-75
2022/07/09 01:15:52;;;;;;;2.90;1.92;;;13.30;99.90;;;;;;6125100;23;20519;-76
2022/07/09 01:18:19;;;;;;;2.20;2.00;;;13.30;99.90;;;;;;6125251;23;20182;-76
2022/07/09 01:20:45;;;;;;;2.60;1.98;;;13.30;99.90;;;;;;6124293;23;20645;-75
2022/07/09 01:23:10;;;;;;;2.45;2.00;;;13.20;99.90;;;;;;6099215;23;20158;-74
2022/07/09 01:25:39;;;;;;;2.45;2.25;;;13.20;99.90;;;;;;6125332;23;20164;-75
2022/07/09 01:28:06;;;;;;;2.53;2.35;;;13.10;99.90;;;;;;6125142;23;20150;-74
2022/07/09 01:30:33;;;;;;;2.30;2.10;;;13.10;99.90;;;;;;6124782;23;20585;-75
2022/07/09 01:32:59;;;;;;;1.92;1.83;;;13.10;99.90;;;;;;6125366;23;20146;-75
2022/07/09 01:35:25;;;;;;;3.08;2.00;;;13.00;99.90;;;;;;6125255;23;20150;-75
2022/07/09 01:37:51;;;;;;;2.20;2.10;;;13.00;99.90;;;;;;6125504;23;20161;-75
2022/07/09 01:40:17;;;;;;;3.40;2.28;;;12.90;99.90;;;;;;6098733;23;20260;-75
2022/07/09 01:42:43;;;;;;;2.95;2.53;;;12.90;99.90;;;;;;6125335;23;20260;-74
2022/07/09 01:45:09;;;;;;;5.07;2.63;;;12.90;99.90;;;;;;6124786;23;20174;-75
2022/07/09 01:47:35;;;;;;;2.97;2.40;;;12.90;99.90;;;;;;6125279;23;20689;-76
2022/07/09 01:50:01;;;;;;;2.63;2.13;;;12.80;99.90;;;;;;6125078;23;20174;-78
2022/07/09 01:52:28;;;;;;;3.00;2.50;;;12.80;99.90;;;;;;6125311;23;20157;-75
2022/07/09 01:54:53;;;;;;;3.88;2.40;;;12.80;99.90;;;;;;6123285;23;20162;-75
2022/07/09 01:57:19;;;;;;;3.95;2.50;;;12.80;99.90;;;;;;6125035;23;20154;-75
2022/07/09 01:59:44;;;;;;;2.20;2.08;;;12.90;99.90;;;;;;6123523;23;20174;-75
2022/07/09 02:02:10;;;;;;;2.83;2.63;;;13.00;99.90;;;;;;6125190;23;20494;-75
2022/07/09 02:04:36;;;;;;;3.17;2.33;;;13.10;99.90;;;;;;6124504;23;20169;-76
2022/07/09 02:07:01;;;;;;;3.35;2.33;;;13.10;99.90;;;;;;6125142;23;20205;-76
2022/07/09 02:09:27;;;;;;;2.17;2.00;;;13.20;99.90;;;;;;6124761;23;20487;-76
2022/07/09 02:11:53;;;;;;;3.03;2.30;;;13.20;99.90;;;;;;6125138;23;20155;-76
2022/07/09 02:14:18;;;;;;;2.67;2.30;;;13.30;99.90;;;;;;6124943;23;20165;-76
2022/07/09 02:16:44;;;;;;;2.40;2.20;;;13.40;99.90;;;;;;6124798;23;20161;-74
2022/07/09 02:19:10;;;;;;;1.90;1.90;;;13.30;99.90;;;;;;6124991;23;20174;-76
2022/07/09 02:21:36;;;;;;;2.20;2.00;;;13.30;99.90;;;;;;6125005;23;20147;-74
2022/07/09 02:24:02;;;;;;;2.17;2.03;;;13.40;99.90;;;;;;6124970;23;20186;-75
2022/07/09 02:26:29;;;;;;;3.00;2.45;;;13.50;99.90;;;;;;6125172;23;20188;-75
2022/07/09 02:28:58;;;;;;;4.70;2.40;;;13.50;99.90;;;;;;6098784;23;20182;-75
2022/07/09 02:31:28;;;;;;;4.60;2.15;;;13.40;99.90;;;;;;6126739;23;20170;-75
2022/07/09 02:33:53;;;;;;;2.30;2.10;;;13.30;99.90;;;;;;6126760;23;20165;-75
2022/07/09 02:36:19;;;;;;;2.95;2.00;;;13.30;99.90;;;;;;6126497;23;20154;-75
2022/07/09 02:38:45;;;;;;;4.10;2.17;;;13.40;99.90;;;;;;6126182;23;20623;-75
2022/07/09 02:41:11;;;;;;;2.53;1.63;;;13.50;99.90;;;;;;6126597;23;20170;-74
2022/07/09 02:43:36;;;;;;;2.03;1.92;;;13.40;99.90;;;;;;6126800;23;20201;-75
2022/07/09 02:46:03;;;;;;;2.92;2.10;;;13.40;99.90;;;;;;6126416;23;20201;-75
2022/07/09 02:48:29;;;;;;;2.58;2.05;;;13.40;99.90;;;;;;6126214;23;20174;-74
2022/07/09 02:50:55;;;;;;;3.60;2.42;;;13.40;99.90;;;;;;6126762;23;20551;-75
2022/07/09 02:53:20;;;;;;;2.47;1.90;;;13.40;99.90;;;;;;6126815;23;20156;-75
2022/07/09 02:55:46;;;;;;;1.83;1.73;;;13.40;99.90;;;;;;6125954;23;20150;-75
2022/07/09 02:58:12;;;;;;;2.70;1.90;;;13.50;99.90;;;;;;6126649;23;20197;-74
2022/07/09 03:00:42;;;;;;;2.30;2.10;;;13.50;99.90;;;;;;6126444;23;20193;-75
2022/07/09 03:03:08;;;;;;;1.73;1.63;;;13.50;99.90;;;;;;6126168;23;20146;-74
2022/07/09 03:05:34;;;;;;;4.20;2.40;;;13.60;99.90;;;;;;6126393;23;20182;-74
2022/07/09 03:08:00;;;;;;;2.33;2.13;;;13.60;99.90;;;;;;6126585;23;20225;-74
2022/07/09 03:10:26;;;;;;;1.98;1.80;;;13.70;99.90;;;;;;6125746;23;20200;-74
2022/07/09 03:12:52;;;;;;;5.18;2.25;;;13.70;99.90;;;;;;6126115;23;20229;-74
2022/07/09 03:15:17;;;;;;;2.55;2.40;;;13.80;99.90;;;;;;6126477;23;20165;-74
2022/07/09 03:17:44;;;;;;;4.80;2.60;;;13.80;99.90;;;;;;6126434;23;20161;-74
2022/07/09 03:20:10;;;;;;;2.35;2.17;;;13.80;99.90;;;;;;6124510;23;20174;-73
2022/07/09 03:22:36;;;;;;;2.60;2.33;;;13.90;99.90;;;;;;6125409;23;20150;-74
2022/07/09 03:25:03;;;;;;;2.40;2.20;;;13.90;99.90;;;;;;6126316;23;20565;-77
2022/07/09 03:27:29;;;;;;;4.53;2.50;;;13.90;99.90;;;;;;6125966;23;20615;-75
2022/07/09 03:29:55;;;;;;;5.25;2.55;;;13.90;99.90;;;;;;6125552;23;20170;-75
2022/07/09 03:32:21;;;;;;;2.67;2.40;;;14.00;99.90;;;;;;6125934;23;20231;-75
2022/07/09 03:34:47;;;;;;;2.70;2.30;;;14.10;99.90;;;;;;6126515;23;20181;-74
2022/07/09 03:37:13;;;;;;;2.53;2.33;;;14.20;99.90;;;;;;6125351;23;20532;-75
2022/07/09 03:39:39;;;;;;;2.90;2.70;;;14.20;99.90;;;;;;6125408;23;20182;-74
2022/07/09 03:42:06;;;;;;;2.85;2.40;;;14.10;99.90;;;;;;6125507;23;20154;-75
2022/07/09 03:44:33;;;;;;;4.40;2.80;;;14.20;99.90;;;;;;6126080;23;20170;-75
2022/07/09 03:46:59;;;;;;;3.58;2.67;;;14.20;99.90;;;;;;6125235;23;20557;-75
2022/07/09 03:49:25;;;;;;;2.90;2.63;;;14.20;99.90;;;;;;6124797;23;20385;-75
2022/07/09 03:51:50;;;;;;;2.70;2.60;;;14.30;99.90;;;;;;6125848;23;20378;-75
2022/07/09 03:54:16;;;;;;;2.40;2.25;;;14.40;99.90;;;;;;6123792;23;20201;-76
2022/07/09 03:56:41;;;;;;;3.97;2.47;;;14.40;99.90;;;;;;6125989;23;20149;-75
2022/07/09 03:59:07;;;;;;;2.63;2.42;;;14.40;99.90;;;;;;6125246;23;20161;-75
2022/07/09 04:01:33;;;;;;;3.03;2.63;;;14.50;99.90;;;;;;6124459;23;20174;-76
2022/07/09 04:03:58;;;;;;;3.00;2.80;;;14.50;99.90;;;;;;6125296;23;20899;-75
2022/07/09 04:06:24;;;;;;;2.67;2.40;;;14.50;99.90;;;;;;6125661;23;20150;-75
2022/07/09 04:08:50;;;;;;;3.22;2.20;;;14.50;99.90;;;;;;6125438;23;20150;-74
2022/07/09 04:11:16;;;;;;;3.85;2.60;;;14.50;99.90;;;;;;6125602;23;20174;-78
2022/07/09 04:13:42;;;;;;;2.88;2.60;;;14.60;99.90;;;;;;6125371;23;20587;-75
2022/07/09 04:16:07;;;;;;;3.33;2.60;;;14.60;99.90;;;;;;6125651;23;20155;-75
2022/07/09 04:18:34;;;;;;;2.55;2.30;;;14.60;99.90;;;;;;6125764;23;20233;-75
2022/07/09 04:21:00;;;;;;;2.60;2.40;;;14.70;99.90;;;;;;6125830;23;20169;-75
2022/07/09 04:23:26;;;;;;;2.60;2.40;;;14.70;99.90;;;;;;6125465;23;20201;-77
2022/07/09 04:25:52;;;;;;;2.92;2.65;;;14.60;99.90;;;;;;6125492;23;20162;-75
2022/07/09 04:28:18;;;;;;;3.10;2.50;;;14.70;99.90;;;;;;6125722;23;20153;-76
2022/07/09 04:30:47;;;;;;;2.50;2.15;;;14.80;99.90;;;;;;6125622;23;20630;-76
2022/07/09 04:33:12;;;;;;;3.30;2.55;;;14.80;99.90;;;;;;6104465;23;20221;-78
2022/07/09 04:35:38;;;;;;;3.10;2.30;;;14.90;99.90;;;;;;6101967;23;20595;-77
2022/07/09 04:38:04;;;;;;;3.35;2.08;;;15.10;99.90;;;;;;6130094;23;20154;-77
2022/07/09 04:40:30;;;;;;;2.70;2.50;;;15.20;99.90;;;;;;6127838;23;20265;-77
2022/07/09 04:42:56;;;;;;;5.13;2.83;;;15.30;99.90;;;;;;6126169;23;20181;-75
2022/07/09 04:45:22;;;;;;;2.60;2.40;;;15.30;99.90;;;;;;6124701;23;20170;-75
2022/07/09 04:47:47;;;;;;;2.75;2.55;;;15.40;99.90;;;;;;6125384;23;20149;-75
2022/07/09 04:50:13;;;;;;;2.38;2.28;;;15.60;99.90;;;;;;6124589;23;20184;-74
2022/07/09 04:52:39;;;;;;;3.17;2.83;;;15.70;99.90;;;;;;6125252;23;20153;-75
2022/07/09 04:55:06;;;;;;;3.60;2.72;;;15.70;99.90;;;;;;6125614;23;20173;-75
2022/07/09 04:57:32;;;;;;;2.97;2.78;;;15.80;99.90;;;;;;6125351;23;20230;-75
2022/07/09 04:59:58;;;;;;;4.22;2.55;;;15.80;99.90;;;;;;6123457;23;20555;-75
2022/07/09 05:02:24;;;;;;;2.20;2.10;;;15.80;99.90;;;;;;6124730;23;20180;-75
2022/07/09 05:04:50;;;;;;;3.00;1.75;;;15.80;99.90;;;;;;6125198;23;20622;-74
2022/07/09 05:07:15;;;;;;;2.50;2.35;;;15.80;99.90;;;;;;6125079;23;20156;-75
2022/07/09 05:09:41;;;;;;;4.03;2.10;;;15.90;99.90;;;;;;6124970;23;20170;-75
2022/07/09 05:12:08;;;;;;;2.08;1.98;;;15.90;99.90;;;;;;6125311;23;20161;-75
2022/07/09 05:14:34;;;;;;;3.08;2.25;;;15.90;99.90;;;;;;6124963;23;20611;-75
2022/07/09 05:16:59;;;;;;;2.92;2.38;;;16.10;99.90;;;;;;6123131;23;20157;-74
2022/07/09 05:19:25;;;;;;;2.20;2.00;;;16.10;99.90;;;;;;6124617;23;20580;-75
2022/07/09 05:21:51;;;;;;;2.03;1.92;;;16.30;99.90;;;;;;6125047;23;20229;-76
2022/07/09 05:24:16;;;;;;;1.80;1.70;;;16.40;99.90;;;;;;6099128;23;20213;-75
2022/07/09 05:26:42;;;;;;;2.53;2.10;;;16.50;99.90;;;;;;6124655;23;20602;-75
2022/07/09 05:29:07;;;;;;;1.92;1.83;;;16.50;99.90;;;;;;6124043;23;20151;-75
2022/07/09 05:31:33;;;;;;;4.95;2.30;;;16.60;99.90;;;;;;6124402;23;20173;-76
2022/07/09 05:34:00;;;;;;;3.42;2.20;;;16.80;99.90;;;;;;6124903;23;20493;-76
2022/07/09 05:36:28;;;;;;;2.50;2.20;;;16.90;99.90;;;;;;6124466;23;20154;-75
2022/07/09 05:38:55;;;;;;;3.20;1.88;;;17.10;99.90;;;;;;6123379;23;20238;-75
2022/07/09 05:41:22;;;;;;;2.15;1.95;;;17.20;99.90;;;;;;6124064;23;20205;-75
2022/07/09 05:43:48;;;;;;;2.17;1.98;;;17.30;99.90;;;;;;6123950;23;20511;-75
2022/07/09 05:46:13;;;;;;;2.97;2.03;;;17.40;99.90;;;;;;6124755;23;20154;-75
2022/07/09 05:48:39;;;;;;;2.00;1.80;;;17.40;99.90;;;;;;6123880;23;20146;-75
2022/07/09 05:51:05;;;;;;;1.83;1.73;;;17.50;99.90;;;;;;6124500;23;20174;-75
2022/07/09 05:53:31;;;;;;;2.20;1.90;;;17.70;99.90;;;;;;6097963;23;20631;-76
2022/07/09 05:55:56;;;;;;;3.65;1.70;;;17.70;99.90;;;;;;6124130;23;20153;-75
2022/07/09 05:58:22;;;;;;;2.10;1.90;;;17.80;99.90;;;;;;6123898;23;20757;-75
2022/07/09 06:00:47;;;;;;;1.70;1.60;;;18.00;99.90;;;;;;6124340;23;20252;-76
2022/07/09 06:03:13;;;;;;;1.95;1.73;;;18.10;99.90;;;;;;6124568;23;20154;-75
2022/07/09 06:05:39;;;;;;;2.08;1.70;;;18.30;99.90;;;;;;6126514;23;20509;-77
2022/07/09 06:08:04;;;;;;;2.72;1.60;;;18.50;99.90;;;;;;6128780;23;20415;-77
2022/07/09 06:10:30;;;;;;;1.92;1.80;;;18.70;99.90;;;;;;6127341;23;20166;-76
2022/07/09 06:12:56;;;;;;;3.35;1.85;;;18.80;99.90;;;;;;6132918;23;20146;-76
2022/07/09 06:15:21;;;;;;;2.38;2.22;;;18.80;99.90;;;;;;6130799;23;20630;-76
2022/07/09 06:17:50;;;;;;;2.05;1.52;;;18.90;99.90;;;;;;6134893;23;20157;-80
2022/07/09 06:20:16;;;;;;;2.05;1.63;;;19.10;99.90;;;;;;6102510;23;20205;-76
2022/07/09 06:22:42;;;;;;;2.45;1.50;;;19.40;99.90;;;;;;6130913;23;20157;-80
2022/07/09 06:25:08;;;;;;;3.15;1.55;;;19.50;99.90;;;;;;6126809;23;20186;-77
2022/07/09 06:27:34;;;;;;;2.75;2.22;;;19.50;99.90;;;;;;6125441;23;20150;-77
2022/07/09 06:30:00;;;;;;;2.00;1.90;;;19.40;99.90;;;;;;6126171;23;20176;-78
2022/07/09 06:32:26;;;;;;;3.20;1.77;;;19.20;99.90;;;;;;6126462;23;20225;-78
2022/07/09 06:34:51;;;;;;;2.22;1.70;;;19.10;99.90;;;;;;6126768;23;20196;-78
2022/07/09 06:37:17;;;;;;;1.70;1.60;;;19.00;99.90;;;;;;6126599;23;20250;-77
2022/07/09 06:39:45;;;;;;;2.65;1.58;;;18.80;99.90;;;;;;6125218;23;20174;-77
2022/07/09 06:42:16;;;;;;;3.13;2.08;;;18.80;99.90;;;;;;6125757;23;20178;-76
2022/07/09 06:44:42;;;;;;;3.30;1.70;;;18.80;99.90;;;;;;6125534;23;20201;-77
2022/07/09 06:47:08;;;;;;;1.70;1.60;;;18.80;99.90;;;;;;6126358;23;20201;-78
2022/07/09 06:49:33;;;;;;;3.42;1.80;;;19.10;99.90;;;;;;6125700;23;20173;-79
2022/07/09 06:51:59;;;;;;;2.22;1.40;;;19.40;99.90;;;;;;6125998;23;20643;-78
2022/07/09 06:54:25;;;;;;;2.90;1.50;;;19.50;99.90;;;;;;6126584;23;20157;-78
2022/07/09 06:56:52;;;;;;;1.60;1.52;;;19.70;99.90;;;;;;6126389;23;20228;-78
2022/07/09 06:59:22;;;;;;;2.72;1.65;;;19.60;99.90;;;;;;6125655;23;20134;-77
2022/07/09 07:01:47;;;;;;;2.78;1.98;;;19.60;99.90;;;;;;6100943;23;20162;-79
2022/07/09 07:04:14;;;;;;;3.45;1.90;;;19.80;99.90;;;;;;6125992;23;20221;-78
2022/07/09 07:06:44;;;;;;;2.22;1.83;;;19.90;99.90;;;;;;6101120;23;20502;-77
2022/07/09 07:09:10;;;;;;;2.47;1.42;;;20.00;99.90;;;;;;6127030;23;20153;-83
2022/07/09 07:11:35;;;;;;;1.73;1.63;;;20.10;99.90;;;;;;6138881;23;20166;-83
2022/07/09 07:14:01;;;;;;;1.52;1.42;;;20.30;99.90;;;;;;6115601;23;20181;-87
2022/07/09 07:16:27;;;;;;;4.00;1.50;;;20.40;99.90;;;;;;6139583;23;20150;-82
2022/07/09 07:18:53;;;;;;;1.70;1.45;;;20.20;99.90;;;;;;6113711;23;20157;-82
2022/07/09 07:21:18;;;;;;;1.23;1.20;;;20.20;99.90;;;;;;6112956;23;20188;-83
2022/07/09 07:23:44;;;;;;;1.42;1.23;;;20.20;99.90;;;;;;6113396;23;20185;-82
2022/07/09 07:26:10;;;;;;;2.08;1.45;;;20.40;99.90;;;;;;6110114;23;20150;-82
2022/07/09 07:28:36;;;;;;;1.63;1.20;;;20.50;99.90;;;;;;6103798;23;20150;-83
2022/07/09 07:31:01;;;;;;;2.58;1.20;;;20.60;99.90;;;;;;6106325;23;20197;-83
2022/07/09 07:33:27;;;;;;;1.92;1.40;;;20.70;99.90;;;;;;6105574;23;20189;-83
2022/07/09 07:35:53;;;;;;;3.33;1.70;;;20.80;99.90;;;;;;6105047;23;20189;-82
2022/07/09 07:38:18;;;;;;;1.88;0.98;;;20.70;99.90;;;;;;6129122;23;20162;-82
2022/07/09 07:40:44;;;;;;;1.48;1.00;;;20.90;99.90;;;;;;6130607;23;20166;-81
2022/07/09 07:43:11;;;;;;;1.45;1.00;;;21.10;99.90;;;;;;6104400;23;20587;-80
2022/07/09 07:45:37;;;;;;;0.85;0.85;;;21.40;99.90;;;;;;6128722;23;20509;-81
2022/07/09 07:48:03;;;;;;;2.80;1.10;;;21.90;99.90;;;;;;6128180;23;20213;-82
2022/07/09 07:50:28;;;;;;;0.95;0.90;;;22.70;99.90;;;;;;6129715;23;20193;-81
2022/07/09 07:52:54;;;;;;;1.30;1.20;;;23.30;99.90;;;;;;6103934;23;20161;-81
2022/07/09 07:55:20;;;;;;;1.10;0.93;;;23.50;99.90;;;;;;6127925;23;20531;-82
2022/07/09 07:57:45;;;;;;;2.10;1.08;;;23.50;99.50;;;;;;6101839;23;20629;-82
2022/07/09 08:00:12;;;;;;;1.00;1.00;;;23.80;99.70;;;;;;6129659;23;20185;-82
2022/07/09 08:02:38;;;;;;;2.47;1.08;;;23.90;99.30;;;;;;6131597;23;20158;-82
2022/07/09 08:05:04;;;;;;;1.95;0.70;;;24.20;96.70;;;;;;6106759;23;20186;-84
2022/07/09 08:07:30;;;;;;;1.02;0.82;;;24.30;97.30;;;;;;6132432;23;20151;-81
2022/07/09 08:09:55;;;;;;;1.98;0.82;;;24.60;97.50;;;;;;6131458;23;20171;-82
2022/07/09 08:12:21;;;;;;;1.00;1.00;;;24.90;94.60;;;;;;6128510;23;20145;-83
2022/07/09 08:14:47;;;;;;;1.13;1.02;;;25.10;92.40;;;;;;6128628;23;20193;-80
2022/07/09 08:17:12;;;;;;;1.77;0.77;;;25.10;92.60;;;;;;6130991;23;20162;-80
2022/07/09 08:19:38;;;;;;;0.80;0.80;;;24.80;94.00;;;;;;6107591;23;20205;-81
2022/07/09 08:22:04;;;;;;;2.78;1.27;;;24.90;93.40;;;;;;6112028;23;20185;-81
2022/07/09 08:24:45;;;;;;;2.10;0.98;;;25.20;93.60;;;;;;6145727;23;20193;-76
2022/07/09 08:27:14;;;;;;;1.40;0.90;;;25.30;91.40;;;;;;6136669;23;20161;-77
2022/07/09 08:29:40;;;;;;;1.13;1.00;;;25.50;90.30;;;;;;6102279;23;20189;-78
2022/07/09 08:32:06;;;;;;;0.60;0.60;;;25.70;89.80;;;;;;6130213;23;20154;-78
2022/07/09 08:34:31;;;;;;;2.13;1.10;;;25.90;86.60;;;;;;6128219;23;20152;-76
2022/07/09 08:36:57;;;;;;;0.60;0.57;;;25.70;88.00;;;;;;6131461;23;20650;-78
2022/07/09 08:39:22;;;;;;;2.42;0.80;;;25.70;88.70;;;;;;6131076;23;20154;-80
2022/07/09 08:41:49;;;;;;;0.90;0.90;;;25.80;86.30;;;;;;6104797;23;20155;-78
2022/07/09 08:44:17;;;;;;;1.40;0.93;;;25.70;88.00;;;;;;6102971;23;20178;-79
2022/07/09 08:46:48;;;;;;;1.02;0.93;;;25.60;88.40;;;;;;6131117;23;20146;-78
2022/07/09 08:49:15;;;;;;;2.70;0.90;;;25.80;88.80;;;;;;6134368;23;20217;-75
2022/07/09 08:51:42;;;;;;;3.83;0.80;;;26.20;86.00;;;;;;6123563;23;20213;-77
2022/07/09 08:54:08;;;;;;;0.80;0.50;;;26.30;83.80;;;;;;6122974;23;20154;-74
2022/07/09 08:56:34;;;;;;;1.65;0.93;;;26.20;84.60;;;;;;6120115;23;20181;-74
2022/07/09 08:59:00;;;;;;;1.83;0.90;;;26.20;84.20;;;;;;6121846;23;20138;-75
2022/07/09 09:01:27;;;;;;;2.05;1.00;;;26.00;83.70;;;;;;6124180;23;20188;-75
2022/07/09 09:03:54;;;;;;;1.27;1.13;;;26.00;84.30;;;;;;6124413;23;20309;-75
2022/07/09 09:06:23;;;;;;;1.33;0.90;;;25.90;85.50;;;;;;6124896;23;20150;-74
2022/07/09 09:08:52;;;;;;;2.22;1.17;;;25.80;87.90;;;;;;6124330;23;20146;-74
2022/07/09 09:11:23;;;;;;;1.63;1.00;;;25.40;88.20;;;;;;6124640;23;20173;-74
2022/07/09 09:13:50;;;;;;;4.15;1.13;;;25.00;88.30;;;;;;6124582;23;20150;-74
2022/07/09 09:16:18;;;;;;;4.22;1.58;;;24.70;89.50;;;;;;6098706;23;20205;-74
2022/07/09 09:18:46;;;;;;;2.67;1.23;;;24.40;91.30;;;;;;6123926;23;20154;-74
2022/07/09 09:21:13;;;;;;;1.58;1.05;;;24.20;91.80;;;;;;6124595;23;20174;-75
2022/07/09 09:23:43;;;;;;;1.30;1.20;;;24.00;93.30;;;;;;6124556;23;20161;-75
2022/07/09 09:26:17;;;;;;;1.77;1.20;;;23.70;93.40;;;;;;6124727;23;20480;-74
2022/07/09 09:28:48;;;;;;;2.25;1.15;;;23.70;93.60;;;;;;6124708;23;20162;-75
2022/07/09 09:31:20;;;;;;;0.82;0.82;;;23.80;93.40;;;;;;6123897;23;20241;-75
2022/07/09 09:33:46;;;;;;;1.48;1.13;;;23.90;93.20;;;;;;6124667;23;20150;-74
2022/07/09 09:36:22;;;;;;;2.05;1.20;;;24.20;93.00;;;;;;6124647;23;20209;-74
2022/07/09 09:38:48;;;;;;;1.05;0.85;;;24.50;92.40;;;;;;6123682;23;20164;-75
2022/07/09 09:41:21;;;;;;;2.95;0.98;;;25.10;90.70;;;;;;6124498;23;20623;-75
2022/07/09 09:43:48;;;;;;;1.70;1.08;;;26.40;90.30;;;;;;6124583;23;20261;-73
2022/07/09 09:46:14;;;;;;;1.60;1.17;;;28.20;85.10;;;;;;6124367;23;20165;-72
2022/07/09 09:48:40;;;;;;;0.98;0.90;;;29.20;78.50;;;;;;6124339;23;20154;-74
2022/07/09 09:51:07;;;;;;;1.85;1.27;;;29.40;74.30;;;;;;6124569;23;20630;-74
2022/07/09 09:53:33;;;;;;;1.23;1.02;;;29.70;73.10;;;;;;6123855;23;20157;-74
2022/07/09 09:55:58;;;;;;;1.52;1.13;;;29.60;71.20;;;;;;6124462;23;20224;-74
2022/07/09 09:58:24;;;;;;;1.02;1.00;;;29.00;73.80;;;;;;6124463;23;20233;-74
2022/07/09 10:00:50;;;;;;;0.63;0.63;;;28.70;72.50;;;;;;6124248;23;20170;-73
2022/07/09 10:03:16;;;;;;;1.23;0.88;;;28.50;72.80;;;;;;6124249;23;20150;-74
2022/07/09 10:05:42;;;;;;;1.48;1.15;;;28.40;73.10;;;;;;6124453;23;20229;-74
2022/07/09 10:08:08;;;;;;;2.70;1.58;;;28.00;73.70;;;;;;6124533;23;20150;-73
2022/07/09 10:10:33;;;;;;;1.40;1.10;;;27.50;77.80;;;;;;6124027;23;20198;-74
2022/07/09 10:12:59;;;;;;;1.45;1.10;;;27.70;74.20;;;;;;6123732;23;20150;-74
2022/07/09 10:15:26;;;;;;;1.23;1.00;;;28.30;71.70;;;;;;6124604;23;20190;-72
2022/07/09 10:17:52;;;;;;;1.10;1.00;;;29.60;71.00;;;;;;6124657;23;20636;-72
2022/07/09 10:20:33;;;;;;;0.70;0.70;;;30.80;71.50;;;;;;6124111;23;20432;-72
2022/07/09 10:22:59;;;;;;;1.33;0.77;;;32.50;66.00;;;;;;6124309;23;20477;-72
2022/07/09 10:25:30;;;;;;;1.80;1.08;;;34.60;59.50;;;;;;6123730;23;20236;-71
2022/07/09 10:27:55;;;;;;;2.70;1.05;;;36.60;55.30;;;;;;6122617;23;20204;-73
2022/07/09 10:30:25;;;;;;;1.10;0.98;;;38.30;48.90;;;;;;6123495;23;20166;-73
2022/07/09 10:33:08;;;;;;;0.85;0.80;;;37.50;48.10;;;;;;6124590;23;20165;-72
2022/07/09 10:35:45;;;;;;;1.45;0.98;;;35.20;50.90;;;;;;6124544;23;20157;-72
2022/07/09 10:38:12;;;;;;;0.80;0.80;;;33.10;54.40;;;;;;6124203;23;20149;-73
2022/07/09 10:40:42;;;;;;;1.00;1.00;;;32.10;55.30;;;;;;6124854;23;20701;-72
2022/07/09 10:43:09;;;;;;;1.45;1.10;;;31.30;57.40;;;;;;6124437;23;20540;-73
2022/07/09 10:45:34;;;;;;;1.30;1.20;;;30.40;58.30;;;;;;6123763;23;20176;-73
2022/07/09 10:48:02;;;;;;;1.05;0.90;;;29.70;61.40;;;;;;6124195;23;20150;-73
2022/07/09 10:50:29;;;;;;;1.35;1.10;;;29.20;60.60;;;;;;6124035;23;20228;-72
2022/07/09 10:52:56;;;;;;;0.77;0.77;;;28.70;61.40;;;;;;6124398;23;20552;-72
2022/07/09 10:55:26;;;;;;;1.67;1.17;;;28.30;61.80;;;;;;6125753;23;20197;-75
2022/07/09 10:57:53;;;;;;;1.10;1.00;;;28.20;63.30;;;;;;6126018;23;20165;-75
2022/07/09 11:00:21;;;;;;;0.82;0.82;;;27.80;64.40;;;;;;6125861;23;20177;-75
2022/07/09 11:02:57;;;;;;;1.50;1.10;;;27.50;67.50;;;;;;6124716;23;20154;-75
2022/07/09 11:05:28;;;;;;;1.55;1.08;;;27.50;67.50;;;;;;6125219;23;20170;-75
2022/07/09 11:08:12;;;;;;;0.93;0.80;;;27.30;67.10;;;;;;6125906;23;20138;-74
2022/07/09 11:10:39;;;;;;;1.48;1.08;;;27.10;68.60;;;;;;6098937;23;20552;-76
2022/07/09 11:13:08;;;;;;;2.35;0.80;;;26.70;70.00;;;;;;6125739;23;20201;-76
2022/07/09 11:15:34;;;;;;;2.08;1.15;;;26.20;71.40;;;;;;6099714;23;20165;-76
2022/07/09 11:18:09;;;;;;;1.05;0.80;;;26.10;73.30;;;;;;6125326;23;20623;-75
2022/07/09 11:20:39;;;;;;;0.93;0.90;;;25.80;73.20;;;;;;6124494;23;20169;-75
2022/07/09 11:23:05;;;;;;;1.27;1.15;;;25.70;72.60;;;;;;6125701;23;20150;-75
2022/07/09 11:25:31;;;;;;;1.30;1.20;;;25.70;73.00;;;;;;6125684;23;20235;-77
2022/07/09 11:27:58;;;;;;;1.35;1.25;;;25.70;73.70;;;;;;6099897;23;20182;-74
2022/07/09 11:30:25;;;;;;;0.70;0.70;;;25.50;74.10;;;;;;6125444;23;20169;-76
2022/07/09 11:32:50;;;;;;;1.30;1.00;;;25.50;74.20;;;;;;6124679;23;20146;-74
2022/07/09 11:35:25;;;;;;;1.00;1.00;;;25.50;74.90;;;;;;6125064;23;20176;-73
2022/07/09 11:37:52;;;;;;;1.05;1.00;;;25.60;74.20;;;;;;6125748;23;20153;-73
2022/07/09 11:40:18;;;;;;;1.38;1.30;;;25.70;74.40;;;;;;6125270;23;20181;-73
2022/07/09 11:42:45;;;;;;;1.83;1.10;;;25.90;74.00;;;;;;6125684;23;20219;-74
2022/07/09 11:45:11;;;;;;;1.05;1.05;;;26.00;75.40;;;;;;6125288;23;20174;-72
2022/07/09 11:47:41;;;;;;;1.23;1.05;;;26.00;72.90;;;;;;6126439;23;20146;-76
2022/07/09 11:50:15;;;;;;;1.85;0.82;;;26.00;72.70;;;;;;6122966;23;20166;-77
2022/07/09 11:52:50;;;;;;;2.75;1.10;;;26.00;73.20;;;;;;6125015;23;20170;-77
2022/07/09 11:55:21;;;;;;;1.27;1.20;;;26.00;74.30;;;;;;6125826;23;20153;-76
2022/07/09 11:57:58;;;;;;;1.08;1.00;;;26.00;74.60;;;;;;6125483;23;20499;-75
2022/07/09 12:00:32;;;;;;;1.48;0.95;;;26.30;74.40;;;;;;6124530;23;20571;-76
2022/07/09 12:03:02;;;;;;;2.88;1.00;;;27.10;73.80;;;;;;6124216;23;20142;-73
2022/07/09 12:05:30;;;;;;;0.93;0.93;;;28.40;70.70;;;;;;6124253;23;20181;-73
2022/07/09 12:07:58;;;;;;;2.22;1.10;;;30.00;66.00;;;;;;6124497;23;20176;-73
2022/07/09 12:10:32;;;;;;;0.88;0.88;;;30.70;64.40;;;;;;6123756;23;20174;-74
2022/07/09 12:12:58;;;;;;;1.88;1.00;;;30.60;61.90;;;;;;6124063;23;20623;-74
2022/07/09 12:15:25;;;;;;;0.95;0.90;;;30.10;63.30;;;;;;6123986;23;20142;-74
2022/07/09 12:17:55;;;;;;;1.60;1.10;;;29.50;64.40;;;;;;6123843;23;20569;-73
2022/07/09 12:20:25;;;;;;;1.00;1.00;;;28.60;67.70;;;;;;6123833;23;20180;-76
2022/07/09 12:22:51;;;;;;;1.58;0.90;;;27.70;69.80;;;;;;6125087;23;20157;-73
2022/07/09 12:25:17;;;;;;;3.10;1.52;;;26.70;71.30;;;;;;6124551;23;20792;-73
2022/07/09 12:27:43;;;;;;;2.50;1.00;;;26.10;71.70;;;;;;6124563;23;20154;-75
2022/07/09 12:30:09;;;;;;;1.33;1.20;;;25.50;73.90;;;;;;6124143;23;20297;-75
2022/07/09 12:32:35;;;;;;;1.48;0.95;;;25.00;75.70;;;;;;6125302;23;20988;-76
2022/07/09 12:35:01;;;;;;;1.10;1.10;;;24.60;77.40;;;;;;6123166;23;20177;-78
2022/07/09 12:37:27;;;;;;;1.35;1.10;;;24.30;77.70;;;;;;6125399;23;20237;-75
2022/07/09 12:39:53;;;;;;;1.17;1.00;;;24.00;79.30;;;;;;6124948;23;20197;-75
2022/07/09 12:42:20;;;;;;;2.00;1.25;;;23.80;80.10;;;;;;6125089;23;20158;-74
2022/07/09 12:44:46;;;;;;;3.30;1.13;;;23.70;81.10;;;;;;6124664;23;20186;-76